Time;durP1;ratioP1;P1;durP2;ratioP2;P2;SDS_P1;SDS_P2;PMS_P1;PMS_P2;Temp;Humidity;BMP_temperature;BMP_pressure;BME280_temperature;BME280_humidity;BME280_pressure;Samples;Min_cycle;Max_cycle;Signal;HPM_P1;HPM_P2
2022/10/22 00:01:56;;;;;;;;;;;;;;;;;;10540973;28;19949;-70
2022/10/22 00:06:58;;;;;;;;;;;;;;;;;;10541712;28;20374;-69
2022/10/22 00:12:00;;;;;;;;;;;;;;;;;;10540871;28;19924;-70
2022/10/22 00:17:02;;;;;;;;;;;;;;;;;;10542028;28;19924;-69
2022/10/22 00:22:05;;;;;;;;;;;;;;;;;;10541805;28;19928;-69
2022/10/22 00:27:07;;;;;;;;;;;;;;;;;;10538921;28;20329;-69
2022/10/22 00:32:09;;;;;;;;;;;;;;;;;;10541159;28;19954;-69
2022/10/22 00:37:11;;;;;;;;;;;;;;;;;;10540666;28;19989;-69
2022/10/22 00:42:13;;;;;;;;;;;;;;;;;;10538930;28;19924;-69
2022/10/22 00:47:15;;;;;;;;;;;;;;;;;;10538916;28;19928;-69
2022/10/22 00:52:17;;;;;;;;;;;;;;;;;;10540855;28;19970;-69
2022/10/22 00:57:19;;;;;;;;;;;;;;;;;;10540115;28;20295;-70
2022/10/22 01:02:21;;;;;;;;;;;;;;;;;;10538891;28;20272;-70
2022/10/22 01:07:23;;;;;;;;;;;;;;;;;;10538000;28;19977;-70
2022/10/22 01:12:25;;;;;;;;;;;;;;;;;;10539083;28;19928;-69
2022/10/22 01:17:28;;;;;;;;;;;;;;;;;;10538798;28;19924;-69
2022/10/22 01:22:30;;;;;;;;;;;;;;;;;;10540331;28;19928;-69
2022/10/22 01:27:32;;;;;;;;;;;;;;;;;;10538255;28;19928;-69
2022/10/22 01:32:34;;;;;;;;;;;;;;;;;;10539167;28;19960;-70
2022/10/22 01:37:36;;;;;;;;;;;;;;;;;;10538401;28;19924;-69
2022/10/22 01:42:38;;;;;;;;;;;;;;;;;;10538843;28;19932;-69
2022/10/22 01:47:40;;;;;;;;;;;;;;;;;;10537943;28;20271;-70
2022/10/22 01:52:44;;;;;;;;;;;;;;;;;;10539073;28;20290;-69
2022/10/22 01:57:46;;;;;;;;;;;;;;;;;;10539785;28;19924;-69
2022/10/22 02:02:48;;;;;;;;;;;;;;;;;;10545975;28;19924;-69
2022/10/22 02:07:50;;;;;;;;;;;;;;;;;;10546446;28;19970;-69
2022/10/22 02:12:53;;;;;;;;;;;;;;;;;;10545776;28;19924;-69
2022/10/22 02:17:55;;;;;;;;;;;;;;;;;;10546757;28;19970;-69
2022/10/22 02:22:57;;;;;;;;;;;;;;;;;;10545488;28;19962;-69
2022/10/22 02:27:59;;;;;;;;;;;;;;;;;;10544420;28;19929;-70
2022/10/22 02:33:01;;;;;;;;;;;;;;;;;;10545747;28;19928;-69
2022/10/22 02:38:03;;;;;;;;;;;;;;;;;;10545988;28;19969;-69
2022/10/22 02:43:05;;;;;;;;;;;;;;;;;;10544006;28;19924;-69
2022/10/22 02:48:07;;;;;;;;;;;;;;;;;;10537768;22;19974;-68
2022/10/22 02:53:09;;;;;;;;;;;;;;;;;;10485021;28;20111;-70
2022/10/22 02:58:12;;;;;;;;;;;;;;;;;;10501840;28;19924;-70
2022/10/22 03:03:14;;;;;;;;;;;;;;;;;;10502367;28;20038;-70
2022/10/22 03:08:16;;;;;;;;;;;;;;;;;;10485098;28;19924;-70
2022/10/22 03:13:18;;;;;;;;;;;;;;;;;;10500705;28;19970;-70
2022/10/22 03:18:20;;;;;;;;;;;;;;;;;;10502428;28;19925;-70
2022/10/22 03:23:22;;;;;;;;;;;;;;;;;;10501376;28;19924;-70
2022/10/22 03:28:25;;;;;;;;;;;;;;;;;;10501927;28;19974;-70
2022/10/22 03:33:27;;;;;;;;;;;;;;;;;;10501136;28;20379;-70
2022/10/22 03:38:29;;;;;;;;;;;;;;;;;;10500596;28;19928;-70
2022/10/22 03:43:31;;;;;;;;;;;;;;;;;;10499762;28;20329;-70
2022/10/22 03:48:34;;;;;;;;;;;;;;;;;;10524906;28;19924;-71
2022/10/22 03:53:36;;;;;;;;;;;;;;;;;;10541393;28;20432;-71
2022/10/22 03:58:38;;;;;;;;;;;;;;;;;;10500798;28;19928;-70
2022/10/22 04:03:40;;;;;;;;;;;;;;;;;;10499930;28;20326;-70
2022/10/22 04:08:42;;;;;;;;;;;;;;;;;;10503233;28;19928;-70
2022/10/22 04:13:44;;;;;;;;;;;;;;;;;;10541359;28;19924;-70
2022/10/22 04:18:46;;;;;;;;;;;;;;;;;;10542041;28;19924;-70
2022/10/22 04:23:48;;;;;;;;;;;;;;;;;;10540316;28;19923;-71
2022/10/22 04:28:50;;;;;;;;;;;;;;;;;;10540810;28;19974;-70
2022/10/22 04:33:52;;;;;;;;;;;;;;;;;;10541497;28;19924;-71
2022/10/22 04:38:54;;;;;;;;;;;;;;;;;;10540428;28;19924;-70
2022/10/22 04:43:56;;;;;;;;;;;;;;;;;;10540472;28;19967;-70
2022/10/22 04:48:58;;;;;;;;;;;;;;;;;;10540113;28;19957;-70
2022/10/22 04:54:01;;;;;;;;;;;;;;;;;;10540916;28;19953;-70
2022/10/22 04:59:03;;;;;;;;;;;;;;;;;;10539694;28;19924;-71
2022/10/22 05:04:05;;;;;;;;;;;;;;;;;;10540698;28;19924;-70
2022/10/22 05:09:07;;;;;;;;;;;;;;;;;;10539032;28;19966;-70
2022/10/22 05:14:09;;;;;;;;;;;;;;;;;;10540491;28;19963;-70
2022/10/22 05:19:11;;;;;;;;;;;;;;;;;;10539785;28;20432;-70
2022/10/22 05:24:13;;;;;;;;;;;;;;;;;;10538347;28;19978;-70
2022/10/22 05:29:15;;;;;;;;;;;;;;;;;;10539515;28;19924;-70
2022/10/22 05:34:17;;;;;;;;;;;;;;;;;;10544540;28;19924;-70
2022/10/22 05:39:20;;;;;;;;;;;;;;;;;;10545152;28;20386;-70
2022/10/22 05:44:22;;;;;;;;;;;;;;;;;;10547480;28;19927;-70
2022/10/22 05:49:24;;;;;;;;;;;;;;;;;;10547198;28;19978;-70
2022/10/22 05:54:26;;;;;;;;;;;;;;;;;;10545355;28;19928;-70
2022/10/22 05:59:28;;;;;;;;;;;;;;;;;;10545947;28;19924;-70
2022/10/22 06:04:30;;;;;;;;;;;;;;;;;;10547287;28;19928;-70
2022/10/22 06:09:32;;;;;;;;;;;;;;;;;;10543502;28;19924;-70
2022/10/22 06:14:34;;;;;;;;;;;;;;;;;;10546905;28;19924;-70
2022/10/22 06:19:36;;;;;;;;;;;;;;;;;;10543589;28;20436;-70
2022/10/22 06:24:38;;;;;;;;;;;;;;;;;;10545891;28;20383;-70
2022/10/22 06:29:42;;;;;;;;;;;;;;;;;;10546268;28;19924;-70
2022/10/22 06:34:45;;;;;;;;;;;;;;;;;;10544186;28;19978;-70
2022/10/22 06:39:47;;;;;;;;;;;;;;;;;;10544456;28;19969;-70
2022/10/22 06:44:49;;;;;;;;;;;;;;;;;;10544273;28;20333;-70
2022/10/22 06:49:51;;;;;;;;;;;;;;;;;;10543863;28;19969;-70
2022/10/22 06:54:53;;;;;;;;;;;;;;;;;;10544697;28;20439;-71
2022/10/22 06:59:55;;;;;;;;;;;;;;;;;;10545132;28;19969;-70
2022/10/22 07:04:57;;;;;;;;;;;;;;;;;;10542497;28;19924;-70
2022/10/22 07:09:59;;;;;;;;;;;;;;;;;;10541582;28;20271;-70
2022/10/22 07:15:01;;;;;;;;;;;;;;;;;;10544566;28;19958;-70
2022/10/22 07:20:03;;;;;;;;;;;;;;;;;;10539931;28;19924;-70
2022/10/22 07:25:05;;;;;;;;;;;;;;;;;;10521815;28;20272;-70
2022/10/22 07:30:08;;;;;;;;;;;;;;;;;;10501409;28;19928;-70
2022/10/22 07:35:10;;;;;;;;;;;;;;;;;;10501826;28;19970;-70
2022/10/22 07:40:12;;;;;;;;;;;;;;;;;;10535648;28;20333;-70
2022/10/22 07:45:14;;;;;;;;;;;;;;;;;;10541382;28;19925;-71
2022/10/22 07:50:16;;;;;;;;;;;;;;;;;;10542228;28;19950;-70
2022/10/22 07:55:18;;;;;;;;;;;;;;;;;;10542227;28;19974;-70
2022/10/22 08:00:20;;;;;;;;;;;;;;;;;;10541067;28;19989;-70
2022/10/22 08:05:25;;;;;;;;;;;;;;;;;;10541907;28;20280;-71
2022/10/22 08:10:27;;;;;;;;;;;;;;;;;;10539142;28;20327;-70
2022/10/22 08:15:30;;;;;;;;;;;;;;;;;;10542167;28;19931;-71
2022/10/22 08:20:32;;;;;;;;;;;;;;;;;;10541945;28;19924;-71
2022/10/22 08:25:34;;;;;;;;;;;;;;;;;;10537677;28;20439;-71
2022/10/22 08:30:37;;;;;;;;;;;;;;;;;;10541794;28;19928;-71
2022/10/22 08:35:39;;;;;;;;;;;;;;;;;;10538740;28;20371;-71
2022/10/22 08:40:41;;;;;;;;;;;;;;;;;;10538839;28;19928;-71
2022/10/22 08:45:43;;;;;;;;;;;;;;;;;;10541175;28;20027;-71
2022/10/22 08:50:45;;;;;;;;;;;;;;;;;;10540189;28;19977;-71
2022/10/22 08:55:48;;;;;;;;;;;;;;;;;;10539769;28;19969;-71
2022/10/22 09:00:50;;;;;;;;;;;;;;;;;;10540794;28;19928;-71
2022/10/22 09:05:52;;;;;;;;;;;;;;;;;;10540045;28;20317;-71
2022/10/22 09:10:54;;;;;;;;;;;;;;;;;;10550547;28;19978;-71
2022/10/22 09:15:57;;;;;;;;;;;;;;;;;;10553851;28;20268;-70
2022/10/22 09:20:59;;;;;;;;;;;;;;;;;;10554394;28;19928;-70
2022/10/22 09:26:01;;;;;;;;;;;;;;;;;;10524587;28;19955;-70
2022/10/22 09:31:03;;;;;;;;;;;;;;;;;;10534895;28;19993;-70
2022/10/22 09:36:06;;;;;;;;;;;;;;;;;;10553510;28;20286;-71
2022/10/22 09:41:08;;;;;;;;;;;;;;;;;;10551783;28;19970;-70
2022/10/22 09:46:10;;;;;;;;;;;;;;;;;;10551937;28;19924;-70
2022/10/22 09:51:13;;;;;;;;;;;;;;;;;;10553077;28;19928;-70
2022/10/22 09:56:15;;;;;;;;;;;;;;;;;;10552294;28;19924;-70
2022/10/22 10:01:17;;;;;;;;;;;;;;;;;;10551399;28;20333;-70
2022/10/22 10:06:19;;;;;;;;;;;;;;;;;;10552935;28;20359;-70
2022/10/22 10:11:21;;;;;;;;;;;;;;;;;;10549322;28;19932;-70
2022/10/22 10:16:27;;;;;;;;;;;;;;;;;;10551118;28;19928;-70
2022/10/22 10:21:30;;;;;;;;;;;;;;;;;;10546574;28;20325;-70
2022/10/22 10:26:34;;;;;;;;;;;;;;;;;;10543491;28;19950;-70
2022/10/22 10:31:36;;;;;;;;;;;;;;;;;;10546267;28;19924;-71
2022/10/22 10:36:38;;;;;;;;;;;;;;;;;;10542965;28;20328;-71
2022/10/22 10:41:40;;;;;;;;;;;;;;;;;;10542927;28;19924;-71
2022/10/22 10:46:42;;;;;;;;;;;;;;;;;;10532446;28;19951;-70
2022/10/22 10:51:44;;;;;;;;;;;;;;;;;;10502890;28;19924;-71
2022/10/22 10:56:46;;;;;;;;;;;;;;;;;;10503325;28;19929;-71
2022/10/22 11:01:48;;;;;;;;;;;;;;;;;;10502534;28;19994;-71
2022/10/22 11:06:50;;;;;;;;;;;;;;;;;;10502215;28;20375;-70
2022/10/22 11:11:52;;;;;;;;;;;;;;;;;;10502763;28;19929;-70
2022/10/22 11:16:55;;;;;;;;;;;;;;;;;;10501966;28;19924;-70
2022/10/22 11:21:58;;;;;;;;;;;;;;;;;;10501797;28;19947;-71
2022/10/22 11:27:00;;;;;;;;;;;;;;;;;;10501617;28;20371;-71
2022/10/22 11:32:02;;;;;;;;;;;;;;;;;;10483914;28;19924;-72
2022/10/22 11:37:04;;;;;;;;;;;;;;;;;;10501109;28;19986;-72
2022/10/22 11:42:06;;;;;;;;;;;;;;;;;;10497821;28;19929;-72
2022/10/22 11:47:08;;;;;;;;;;;;;;;;;;10499741;28;19974;-72
2022/10/22 11:52:10;;;;;;;;;;;;;;;;;;10500122;28;20280;-71
2022/10/22 11:57:12;;;;;;;;;;;;;;;;;;10500238;28;19924;-72
2022/10/22 12:02:14;;;;;;;;;;;;;;;;;;10500513;28;20257;-72
2022/10/22 12:07:17;;;;;;;;;;;;;;;;;;10482449;28;19925;-72
2022/10/22 12:12:19;;;;;;;;;;;;;;;;;;10473065;28;19924;-72
2022/10/22 12:17:21;;;;;;;;;;;;;;;;;;10499256;28;20337;-71
2022/10/22 12:22:23;;;;;;;;;;;;;;;;;;10500063;28;19924;-71
2022/10/22 12:27:25;;;;;;;;;;;;;;;;;;10497999;28;19970;-71
2022/10/22 12:32:27;;;;;;;;;;;;;;;;;;10512486;28;20295;-71
2022/10/22 12:37:29;;;;;;;;;;;;;;;;;;10499146;28;19978;-71
2022/10/22 12:42:31;;;;;;;;;;;;;;;;;;10496300;28;19947;-71
2022/10/22 12:47:33;;;;;;;;;;;;;;;;;;10498935;28;19954;-72
2022/10/22 12:52:35;;;;;;;;;;;;;;;;;;10498145;28;20346;-72
2022/10/22 12:57:37;;;;;;;;;;;;;;;;;;10500040;28;19924;-72
2022/10/22 13:02:42;;;;;;;;;;;;;;;;;;10473903;28;19996;-72
2022/10/22 13:07:44;;;;;;;;;;;;;;;;;;10483796;28;19925;-72
2022/10/22 13:12:46;;;;;;;;;;;;;;;;;;10497942;28;19928;-72
2022/10/22 13:17:48;;;;;;;;;;;;;;;;;;10494708;28;20272;-72
2022/10/22 13:22:50;;;;;;;;;;;;;;;;;;10498619;28;19977;-72
2022/10/22 13:27:52;;;;;;;;;;;;;;;;;;10500368;28;19924;-72
2022/10/22 13:32:54;;;;;;;;;;;;;;;;;;10509001;28;19924;-72
2022/10/22 13:37:56;;;;;;;;;;;;;;;;;;10534115;28;20329;-72
2022/10/22 13:42:59;;;;;;;;;;;;;;;;;;10537528;28;19924;-72
2022/10/22 13:48:01;;;;;;;;;;;;;;;;;;10497458;28;20334;-72
2022/10/22 13:53:04;;;;;;;;;;;;;;;;;;10520845;28;19924;-72
2022/10/22 13:58:06;;;;;;;;;;;;;;;;;;10503327;28;19924;-72
2022/10/22 14:03:08;;;;;;;;;;;;;;;;;;10504621;28;19924;-72
2022/10/22 14:08:10;;;;;;;;;;;;;;;;;;10505373;28;19978;-72
2022/10/22 14:13:12;;;;;;;;;;;;;;;;;;10504283;28;19924;-72
2022/10/22 14:18:14;;;;;;;;;;;;;;;;;;10503876;28;20440;-72
2022/10/22 14:23:16;;;;;;;;;;;;;;;;;;10487247;28;19928;-72
2022/10/22 14:28:23;;;;;;;;;;;;;;;;;;10504197;28;19974;-72
2022/10/22 14:33:25;;;;;;;;;;;;;;;;;;10504263;28;19924;-72
2022/10/22 14:38:31;;;;;;;;;;;;;;;;;;10504201;28;19955;-72
2022/10/22 14:43:33;;;;;;;;;;;;;;;;;;10503045;28;20386;-72
2022/10/22 14:48:35;;;;;;;;;;;;;;;;;;10503367;28;19925;-72
2022/10/22 14:53:37;;;;;;;;;;;;;;;;;;10503261;28;19978;-72
2022/10/22 14:58:39;;;;;;;;;;;;;;;;;;10502745;28;20367;-72
2022/10/22 15:03:41;;;;;;;;;;;;;;;;;;10516322;22;20025;-71
2022/10/22 15:08:43;;;;;;;;;;;;;;;;;;10502388;28;19928;-70
2022/10/22 15:13:45;;;;;;;;;;;;;;;;;;10502784;28;19925;-70
2022/10/22 15:18:47;;;;;;;;;;;;;;;;;;10502724;28;19925;-70
2022/10/22 15:23:49;;;;;;;;;;;;;;;;;;10502510;28;19978;-71
2022/10/22 15:28:51;;;;;;;;;;;;;;;;;;10502294;28;19924;-71
2022/10/22 15:33:53;;;;;;;;;;;;;;;;;;10501394;28;19972;-70
2022/10/22 15:39:00;;;;;;;;;;;;;;;;;;10501271;28;20024;-70
2022/10/22 15:44:02;;;;;;;;;;;;;;;;;;10501740;28;19978;-71
2022/10/22 15:49:04;;;;;;;;;;;;;;;;;;10500835;28;19993;-70
2022/10/22 15:54:06;;;;;;;;;;;;;;;;;;10501154;28;19985;-71
2022/10/22 15:59:11;;;;;;;;;;;;;;;;;;10500401;28;20398;-70
2022/10/22 16:04:13;;;;;;;;;;;;;;;;;;10500113;28;19924;-70
2022/10/22 16:09:15;;;;;;;;;;;;;;;;;;10500660;28;19932;-70
2022/10/22 16:14:18;;;;;;;;;;;;;;;;;;10499636;28;19924;-70
2022/10/22 16:19:20;;;;;;;;;;;;;;;;;;10498710;28;19981;-70
2022/10/22 16:24:22;;;;;;;;;;;;;;;;;;10499423;28;19946;-70
2022/10/22 16:29:24;;;;;;;;;;;;;;;;;;10499943;28;19924;-71
2022/10/22 16:34:27;;;;;;;;;;;;;;;;;;10499755;28;19951;-70
2022/10/22 16:39:29;;;;;;;;;;;;;;;;;;10499565;28;19924;-70
2022/10/22 16:44:31;;;;;;;;;;;;;;;;;;10498876;28;20334;-70
2022/10/22 16:49:33;;;;;;;;;;;;;;;;;;10499344;28;19924;-70
2022/10/22 16:54:35;;;;;;;;;;;;;;;;;;10498593;28;19990;-70
2022/10/22 16:59:37;;;;;;;;;;;;;;;;;;10498599;28;20352;-70
2022/10/22 17:04:39;;;;;;;;;;;;;;;;;;10498448;28;19925;-71
2022/10/22 17:09:41;;;;;;;;;;;;;;;;;;10498331;28;20341;-70
2022/10/22 17:14:43;;;;;;;;;;;;;;;;;;10498817;28;19925;-70
2022/10/22 17:19:45;;;;;;;;;;;;;;;;;;10498257;28;19971;-70
2022/10/22 17:24:47;;;;;;;;;;;;;;;;;;10498704;28;19924;-70
2022/10/22 17:29:49;;;;;;;;;;;;;;;;;;10502206;28;19978;-70
2022/10/22 17:34:51;;;;;;;;;;;;;;;;;;10506083;28;19928;-70
2022/10/22 17:39:53;;;;;;;;;;;;;;;;;;10506633;28;19924;-70
2022/10/22 17:44:55;;;;;;;;;;;;;;;;;;10506418;28;19925;-70
2022/10/22 17:49:58;;;;;;;;;;;;;;;;;;10506213;28;19924;-70
2022/10/22 17:55:00;;;;;;;;;;;;;;;;;;10505916;28;19925;-69
2022/10/22 18:00:02;;;;;;;;;;;;;;;;;;10505775;28;19947;-69
2022/10/22 18:05:04;;;;;;;;;;;;;;;;;;10504888;28;19928;-70
2022/10/22 18:10:06;;;;;;;;;;;;;;;;;;10505370;28;19950;-70
2022/10/22 18:15:08;;;;;;;;;;;;;;;;;;10534405;28;19950;-70
2022/10/22 18:20:10;;;;;;;;;;;;;;;;;;10546785;28;19924;-69
2022/10/22 18:25:12;;;;;;;;;;;;;;;;;;10546038;28;19928;-70
2022/10/22 18:30:16;;;;;;;;;;;;;;;;;;10545886;28;20282;-70
2022/10/22 18:35:19;;;;;;;;;;;;;;;;;;10545761;28;19986;-70
2022/10/22 18:40:21;;;;;;;;;;;;;;;;;;10544417;28;19924;-70
2022/10/22 18:45:23;;;;;;;;;;;;;;;;;;10545945;28;19924;-70
2022/10/22 18:50:25;;;;;;;;;;;;;;;;;;10545864;28;19924;-69
2022/10/22 18:55:28;;;;;;;;;;;;;;;;;;10526809;28;20189;-69
2022/10/22 19:00:30;;;;;;;;;;;;;;;;;;10544797;28;19950;-69
2022/10/22 19:05:32;;;;;;;;;;;;;;;;;;10544466;28;19928;-69
2022/10/22 19:10:34;;;;;;;;;;;;;;;;;;10544298;28;20298;-69
2022/10/22 19:15:36;;;;;;;;;;;;;;;;;;10544761;28;19924;-70
2022/10/22 19:20:38;;;;;;;;;;;;;;;;;;10544393;28;19931;-69
2022/10/22 19:25:40;;;;;;;;;;;;;;;;;;10543740;28;19925;-69
2022/10/22 19:30:43;;;;;;;;;;;;;;;;;;10543449;28;20431;-69
2022/10/22 19:35:45;;;;;;;;;;;;;;;;;;10543977;28;19924;-70
2022/10/22 19:40:50;;;;;;;;;;;;;;;;;;10543734;28;19924;-69
2022/10/22 19:45:52;;;;;;;;;;;;;;;;;;10542897;28;20459;-70
2022/10/22 19:50:54;;;;;;;;;;;;;;;;;;10543041;28;19924;-69
2022/10/22 19:55:56;;;;;;;;;;;;;;;;;;10543140;28;19924;-69
2022/10/22 20:00:58;;;;;;;;;;;;;;;;;;10542750;28;19977;-69
2022/10/22 20:06:00;;;;;;;;;;;;;;;;;;10514546;28;19928;-69
2022/10/22 20:11:02;;;;;;;;;;;;;;;;;;10540795;28;20329;-69
2022/10/22 20:16:04;;;;;;;;;;;;;;;;;;10499242;28;19972;-69
2022/10/22 20:21:06;;;;;;;;;;;;;;;;;;10500190;28;19924;-70
2022/10/22 20:26:09;;;;;;;;;;;;;;;;;;10500136;28;19924;-69
2022/10/22 20:31:11;;;;;;;;;;;;;;;;;;10498829;28;19978;-70
2022/10/22 20:36:13;;;;;;;;;;;;;;;;;;10497254;28;20276;-69
2022/10/22 20:41:15;;;;;;;;;;;;;;;;;;10499653;28;20322;-69
2022/10/22 20:46:17;;;;;;;;;;;;;;;;;;10497904;28;19925;-69
2022/10/22 20:51:19;;;;;;;;;;;;;;;;;;10498369;28;20283;-69
2022/10/22 20:56:21;;;;;;;;;;;;;;;;;;10503461;28;19924;-69
2022/10/22 21:01:26;;;;;;;;;;;;;;;;;;10498260;28;20257;-69
2022/10/22 21:06:28;;;;;;;;;;;;;;;;;;10497820;28;20291;-69
2022/10/22 21:11:31;;;;;;;;;;;;;;;;;;10498079;28;19978;-70
2022/10/22 21:16:33;;;;;;;;;;;;;;;;;;10497978;28;19970;-69
2022/10/22 21:21:35;;;;;;;;;;;;;;;;;;10498043;28;20330;-69
2022/10/22 21:26:37;;;;;;;;;;;;;;;;;;10498538;28;19925;-69
2022/10/22 21:31:39;;;;;;;;;;;;;;;;;;10501830;28;19970;-69
2022/10/22 21:36:42;;;;;;;;;;;;;;;;;;10497602;28;19950;-69
2022/10/22 21:41:44;;;;;;;;;;;;;;;;;;10497561;28;19925;-69
2022/10/22 21:46:46;;;;;;;;;;;;;;;;;;10497200;28;19932;-69
2022/10/22 21:51:48;;;;;;;;;;;;;;;;;;10498032;28;19974;-69
2022/10/22 21:56:50;;;;;;;;;;;;;;;;;;10498149;28;19978;-69
2022/10/22 22:01:52;;;;;;;;;;;;;;;;;;10496201;28;20352;-69
2022/10/22 22:06:54;;;;;;;;;;;;;;;;;;10497028;28;19925;-69
2022/10/22 22:11:56;;;;;;;;;;;;;;;;;;10496283;28;19924;-69
2022/10/22 22:16:58;;;;;;;;;;;;;;;;;;10501544;28;19924;-70
2022/10/22 22:22:00;;;;;;;;;;;;;;;;;;10504966;28;19955;-69
2022/10/22 22:27:02;;;;;;;;;;;;;;;;;;10503853;28;19929;-69
2022/10/22 22:32:04;;;;;;;;;;;;;;;;;;10504596;28;19925;-69
2022/10/22 22:37:06;;;;;;;;;;;;;;;;;;10503810;28;20375;-69
2022/10/22 22:42:08;;;;;;;;;;;;;;;;;;10503398;28;20035;-69
2022/10/22 22:47:10;;;;;;;;;;;;;;;;;;10503642;28;19932;-69
2022/10/22 22:52:12;;;;;;;;;;;;;;;;;;10503780;28;19951;-69
2022/10/22 22:57:14;;;;;;;;;;;;;;;;;;10502634;28;19930;-69
2022/10/22 23:02:16;;;;;;;;;;;;;;;;;;10501939;28;20432;-69
2022/10/22 23:07:19;;;;;;;;;;;;;;;;;;10503309;28;19924;-69
2022/10/22 23:12:21;;;;;;;;;;;;;;;;;;10502987;28;19950;-69
2022/10/22 23:17:23;;;;;;;;;;;;;;;;;;10501268;28;19929;-69
2022/10/22 23:22:25;;;;;;;;;;;;;;;;;;10501763;28;19924;-69
2022/10/22 23:27:27;;;;;;;;;;;;;;;;;;10501926;28;19925;-69
2022/10/22 23:32:29;;;;;;;;;;;;;;;;;;10502171;28;19974;-69
2022/10/22 23:37:31;;;;;;;;;;;;;;;;;;10501179;28;19924;-69
2022/10/22 23:42:33;;;;;;;;;;;;;;;;;;10500337;28;19928;-69
2022/10/22 23:47:36;;;;;;;;;;;;;;;;;;10499907;28;19962;-69
2022/10/22 23:52:38;;;;;;;;;;;;;;;;;;10501329;28;19925;-69
2022/10/22 23:57:41;;;;;;;;;;;;;;;;;;10501257;28;19924;-69
